Time;durP1;ratioP1;P1;durP2;ratioP2;P2;SDS_P1;SDS_P2;PMS_P1;PMS_P2;Temp;Humidity;BMP_temperature;BMP_pressure;BME280_temperature;BME280_humidity;BME280_pressure;Samples;Min_cycle;Max_cycle;Signal;HPM_P1;HPM_P2
2023/09/30 00:00:36;;;;;;;32.55;14.00;;;;;;;18.78;69.86;98808.59;5054078;28;20101;-72
2023/09/30 00:03:02;;;;;;;31.38;14.18;;;;;;;18.68;69.91;98783.25;5049803;28;20059;-72
2023/09/30 00:05:27;;;;;;;32.40;13.93;;;;;;;18.79;69.89;98802.03;5068846;28;20060;-74
2023/09/30 00:07:53;;;;;;;32.80;15.25;;;;;;;18.70;69.77;98798.25;5070952;28;20037;-74
2023/09/30 00:10:18;;;;;;;33.30;14.45;;;;;;;18.75;69.76;98805.59;5070868;28;20035;-74
2023/09/30 00:12:44;;;;;;;33.42;14.25;;;;;;;18.70;70.06;98801.00;5067481;28;20553;-75
2023/09/30 00:15:09;;;;;;;29.77;14.57;;;;;;;18.72;70.15;98817.09;5070189;28;20044;-75
2023/09/30 00:17:35;;;;;;;27.23;12.95;;;;;;;18.71;70.44;98818.19;5052932;28;20036;-75
2023/09/30 00:20:00;;;;;;;32.25;13.70;;;;;;;18.71;70.26;98816.28;5036228;28;20029;-75
2023/09/30 00:22:25;;;;;;;31.02;14.00;;;;;;;18.73;70.49;98814.09;5052880;28;20115;-75
2023/09/30 00:24:51;;;;;;;28.67;14.40;;;;;;;18.72;70.28;98812.44;5032525;28;20020;-75
2023/09/30 00:27:16;;;;;;;31.40;13.60;;;;;;;18.77;70.22;98804.22;5046792;28;20511;-72
2023/09/30 00:29:42;;;;;;;27.48;13.73;;;;;;;18.79;69.95;98807.47;5038947;28;20017;-73
2023/09/30 00:32:07;;;;;;;29.20;13.35;;;;;;;18.76;70.51;98813.53;5049764;28;20048;-73
2023/09/30 00:34:36;;;;;;;30.17;14.20;;;;;;;18.78;70.17;98810.50;5039324;28;20393;-73
2023/09/30 00:37:02;;;;;;;29.10;13.50;;;;;;;18.71;70.41;98815.47;5033801;28;20128;-74
2023/09/30 00:39:30;;;;;;;31.30;13.77;;;;;;;18.72;70.54;98812.44;5053458;28;20106;-74
2023/09/30 00:41:59;;;;;;;26.58;12.95;;;;;;;18.65;70.77;98811.94;5045665;28;20032;-74
2023/09/30 00:44:28;;;;;;;28.90;12.75;;;;;;;18.67;70.70;98817.91;5054755;28;20071;-72
2023/09/30 00:46:57;;;;;;;30.30;13.50;;;;;;;18.60;70.74;98801.03;5025948;28;20052;-73
2023/09/30 00:49:23;;;;;;;30.10;13.27;;;;;;;18.69;70.61;98823.09;5041052;28;20047;-72
2023/09/30 00:51:49;;;;;;;27.73;12.52;;;;;;;18.65;70.66;98820.13;5057103;28;20504;-72
2023/09/30 00:54:15;;;;;;;27.52;14.27;;;;;;;18.58;70.96;98811.41;5073887;28;20039;-72
2023/09/30 00:56:44;;;;;;;27.90;12.63;;;;;;;18.73;71.14;98835.91;5052198;28;20550;-71
2023/09/30 00:59:10;;;;;;;30.67;13.55;;;;;;;18.72;70.97;98833.47;5055759;28;20082;-70
2023/09/30 01:01:36;;;;;;;29.42;13.57;;;;;;;18.55;71.20;98833.84;5055968;28;20028;-70
2023/09/30 01:04:02;;;;;;;27.90;12.30;;;;;;;18.53;71.38;98820.44;5039085;28;20039;-71
2023/09/30 01:06:27;;;;;;;26.02;11.60;;;;;;;18.55;71.82;98842.81;5038675;28;20055;-71
2023/09/30 01:08:53;;;;;;;25.27;11.55;;;;;;;18.51;71.99;98839.00;5055706;28;20060;-71
2023/09/30 01:11:21;;;;;;;27.10;12.30;;;;;;;18.42;72.49;98820.75;5055114;28;20126;-70
2023/09/30 01:13:47;;;;;;;25.63;11.45;;;;;;;18.43;72.84;98831.41;5052397;28;20033;-71
2023/09/30 01:16:13;;;;;;;22.02;10.70;;;;;;;18.45;73.35;98833.84;5065313;28;20115;-70
2023/09/30 01:18:42;;;;;;;22.58;10.45;;;;;;;18.33;74.42;98825.16;5052351;28;20053;-71
2023/09/30 01:21:08;;;;;;;22.40;9.95;;;;;;;18.32;75.38;98834.44;5046676;28;20032;-71
2023/09/30 01:23:37;;;;;;;20.80;10.07;;;;;;;18.09;76.27;98814.06;5055465;28;20038;-71
2023/09/30 01:26:09;;;;;;;24.75;10.68;;;;;;;18.17;77.20;98839.94;5054843;28;20032;-70
2023/09/30 01:28:35;;;;;;;17.23;7.82;;;;;;;17.88;78.29;98829.66;5055461;28;20043;-72
2023/09/30 01:31:00;;;;;;;19.40;9.32;;;;;;;17.93;78.62;98832.38;5050143;28;20037;-71
2023/09/30 01:33:26;;;;;;;16.45;8.35;;;;;;;18.01;79.28;98851.97;5038491;28;20036;-71
2023/09/30 01:35:53;;;;;;;18.27;8.43;;;;;;;17.94;79.59;98846.81;5038163;28;20029;-71
2023/09/30 01:38:18;;;;;;;16.05;7.10;;;;;;;17.92;79.43;98849.81;5072967;28;20506;-71
2023/09/30 01:40:44;;;;;;;13.57;7.35;;;;;;;17.99;79.42;98851.44;5038773;28;20494;-73
2023/09/30 01:43:10;;;;;;;15.77;6.63;;;;;;;17.74;80.10;98857.75;5051773;28;20497;-72
2023/09/30 01:45:35;;;;;;;12.00;5.72;;;;;;;17.79;79.59;98861.28;5032567;28;20100;-72
2023/09/30 01:48:02;;;;;;;12.15;5.00;;;;;;;17.77;79.60;98870.81;5054950;28;20475;-71
2023/09/30 01:50:27;;;;;;;12.55;5.22;;;;;;;17.70;79.42;98867.56;5052838;28;20021;-70
2023/09/30 01:52:53;;;;;;;10.50;4.50;;;;;;;17.57;79.58;98865.41;5034882;28;20082;-71
2023/09/30 01:55:18;;;;;;;10.38;5.03;;;;;;;17.64;79.63;98874.91;5048806;28;20029;-71
2023/09/30 01:57:43;;;;;;;12.40;5.63;;;;;;;17.54;79.97;98855.88;5032753;28;20079;-71
2023/09/30 02:00:09;;;;;;;10.35;4.97;;;;;;;17.62;79.82;98868.91;5054584;28;20036;-70
2023/09/30 02:02:38;;;;;;;11.00;5.13;;;;;;;17.54;80.70;98871.38;5072570;28;20033;-72
2023/09/30 02:05:04;;;;;;;14.82;5.45;;;;;;;17.57;80.96;98877.13;5034254;28;20408;-69
2023/09/30 02:07:30;;;;;;;9.93;5.50;;;;;;;17.46;81.37;98861.00;5042928;28;20377;-70
2023/09/30 02:09:55;;;;;;;11.02;6.15;;;;;;;17.54;81.73;98871.38;5054491;28;20038;-70
2023/09/30 02:12:21;;;;;;;11.73;5.53;;;;;;;17.43;82.24;98862.38;5051315;28;20036;-70
2023/09/30 02:14:46;;;;;;;9.48;5.22;;;;;;;17.46;82.50;98869.97;5032829;28;20173;-71
2023/09/30 02:17:13;;;;;;;11.82;5.88;;;;;;;17.48;82.74;98877.91;5053914;28;20115;-70
2023/09/30 02:19:40;;;;;;;11.52;6.35;;;;;;;17.14;82.88;98834.84;5035939;28;20021;-70
2023/09/30 02:22:05;;;;;;;12.18;6.55;;;;;;;17.38;82.79;98856.94;5072296;28;20125;-71
2023/09/30 02:24:31;;;;;;;16.38;6.53;;;;;;;17.42;83.05;98877.06;5071997;28;20480;-71
2023/09/30 02:26:56;;;;;;;14.23;6.30;;;;;;;17.41;83.04;98871.91;5070492;28;20107;-71
2023/09/30 02:29:22;;;;;;;12.55;6.32;;;;;;;17.53;83.06;98895.06;5053879;28;20036;-71
2023/09/30 02:31:48;;;;;;;11.70;5.97;;;;;;;17.53;83.20;98895.06;5037714;28;20647;-69
2023/09/30 02:34:14;;;;;;;10.35;5.68;;;;;;;17.45;83.23;98901.03;5052487;28;20044;-70
2023/09/30 02:36:40;;;;;;;10.80;5.30;;;;;;;17.38;83.31;98899.66;5071398;28;20042;-71
2023/09/30 02:39:05;;;;;;;10.95;5.15;;;;;;;17.33;83.56;98916.81;5071936;28;20028;-70
2023/09/30 02:41:31;;;;;;;10.18;4.97;;;;;;;17.24;83.80;98905.66;5050537;28;20444;-72
2023/09/30 02:43:56;;;;;;;10.20;4.80;;;;;;;17.24;83.44;98915.72;5049150;28;20028;-70
2023/09/30 02:46:22;;;;;;;10.82;4.47;;;;;;;17.06;83.25;98895.25;5037191;28;20403;-71
2023/09/30 02:48:47;;;;;;;9.02;4.10;;;;;;;17.09;83.31;98885.75;5070275;28;20016;-70
2023/09/30 02:51:13;;;;;;;9.10;3.80;;;;;;;17.09;82.98;98874.84;5071693;28;20051;-72
2023/09/30 02:53:38;;;;;;;7.03;3.70;;;;;;;17.18;82.88;98905.91;5051932;28;20029;-71
2023/09/30 02:56:04;;;;;;;7.57;3.83;;;;;;;17.09;82.77;98918.41;5033491;28;20481;-71
2023/09/30 02:58:30;;;;;;;7.18;3.42;;;;;;;16.97;82.70;98902.31;5064880;28;20790;-70
2023/09/30 03:00:56;;;;;;;7.53;3.50;;;;;;;16.95;83.17;98923.53;5033861;28;20051;-70
2023/09/30 03:03:21;;;;;;;5.15;3.20;;;;;;;16.84;82.71;98915.63;5065978;28;20055;-71
2023/09/30 03:05:49;;;;;;;7.07;3.78;;;;;;;16.74;82.91;98910.13;5071242;28;20029;-70
2023/09/30 03:08:15;;;;;;;8.00;3.30;;;;;;;16.74;83.09;98924.56;5037294;28;20017;-69
2023/09/30 03:10:40;;;;;;;9.88;3.75;;;;;;;16.69;83.08;98918.25;5071511;28;20034;-70
2023/09/30 03:13:08;;;;;;;5.93;3.47;;;;;;;16.55;82.83;98891.56;5053379;28;20054;-70
2023/09/30 03:15:35;;;;;;;9.25;3.50;;;;;;;16.82;82.68;98934.94;5033024;28;20037;-73
2023/09/30 03:18:00;;;;;;;9.95;3.50;;;;;;;16.90;82.61;98939.03;5043394;28;20622;-73
2023/09/30 03:20:26;;;;;;;7.22;3.45;;;;;;;16.88;82.43;98941.19;5033402;28;20123;-73
2023/09/30 03:22:52;;;;;;;7.70;3.55;;;;;;;16.92;82.35;98962.16;5046668;28;20110;-72
2023/09/30 03:25:19;;;;;;;6.55;3.97;;;;;;;16.81;82.38;98948.78;5053071;28;20059;-73
2023/09/30 03:27:46;;;;;;;7.80;3.65;;;;;;;16.95;82.26;98961.63;5051856;28;20456;-73
2023/09/30 03:30:13;;;;;;;7.35;3.55;;;;;;;16.95;82.14;98956.19;5071396;28;20064;-71
2023/09/30 03:32:38;;;;;;;6.78;3.55;;;;;;;16.94;81.77;98954.53;5071290;28;20032;-74
2023/09/30 03:35:10;;;;;;;6.90;3.63;;;;;;;16.76;82.16;98946.03;5053176;28;20122;-70
2023/09/30 03:37:39;;;;;;;8.32;3.95;;;;;;;16.91;81.86;98976.88;5053251;28;20147;-71
2023/09/30 03:40:12;;;;;;;6.72;3.83;;;;;;;16.78;82.31;98960.22;5071300;28;20046;-72
2023/09/30 03:42:39;;;;;;;9.02;3.97;;;;;;;16.86;81.71;98963.25;5037416;28;20052;-71
2023/09/30 03:45:07;;;;;;;7.60;3.30;;;;;;;16.96;81.77;98976.06;5052896;28;20070;-71
2023/09/30 03:47:34;;;;;;;8.13;4.05;;;;;;;16.84;81.93;98953.69;5053356;28;20480;-69
2023/09/30 03:49:59;;;;;;;6.78;3.47;;;;;;;16.86;81.97;98978.75;5049941;28;20036;-72
2023/09/30 03:52:26;;;;;;;8.52;4.00;;;;;;;16.90;81.71;98985.28;5068946;28;20040;-71
2023/09/30 03:54:51;;;;;;;5.53;3.70;;;;;;;16.81;82.28;98981.44;5049409;28;20021;-70
2023/09/30 03:57:17;;;;;;;8.13;3.67;;;;;;;16.82;82.41;98972.19;5069599;28;20535;-73
2023/09/30 03:59:42;;;;;;;10.98;4.63;;;;;;;16.81;81.91;98959.66;5071070;28;20028;-73
2023/09/30 04:02:08;;;;;;;5.80;3.92;;;;;;;16.84;82.08;98970.84;5072965;28;20515;-72
2023/09/30 04:04:34;;;;;;;9.43;4.03;;;;;;;16.83;82.04;98968.38;5074799;28;20150;-71
2023/09/30 04:06:59;;;;;;;7.35;4.20;;;;;;;16.88;82.31;98979.28;5074403;28;20031;-72
2023/09/30 04:09:25;;;;;;;9.05;3.80;;;;;;;16.91;83.00;98984.22;5040924;28;20040;-74
2023/09/30 04:11:50;;;;;;;8.10;4.55;;;;;;;16.84;82.97;98970.03;5053564;28;20119;-73
2023/09/30 04:14:17;;;;;;;8.32;4.85;;;;;;;16.88;83.11;98982.84;5040130;28;20048;-75
2023/09/30 04:16:42;;;;;;;9.15;5.13;;;;;;;16.89;83.17;98997.25;5056213;28;20055;-74
2023/09/30 04:19:10;;;;;;;8.88;4.13;;;;;;;16.77;83.46;98969.44;5054753;28;20430;-74
2023/09/30 04:21:35;;;;;;;8.50;4.78;;;;;;;16.86;83.17;98984.19;5055023;28;20048;-75
2023/09/30 04:24:00;;;;;;;10.60;4.97;;;;;;;16.76;82.76;98973.25;5053544;28;20099;-75
2023/09/30 04:26:27;;;;;;;8.40;4.40;;;;;;;16.78;82.78;98985.50;5047699;28;20087;-76
2023/09/30 04:28:53;;;;;;;9.05;4.43;;;;;;;16.78;83.10;98998.31;5039203;28;20036;-73
2023/09/30 04:31:20;;;;;;;7.45;4.22;;;;;;;16.78;83.00;98998.31;5073471;28;20036;-74
2023/09/30 04:33:46;;;;;;;9.82;4.65;;;;;;;16.78;82.81;98992.88;5058113;28;20056;-74
2023/09/30 04:36:12;;;;;;;9.98;4.32;;;;;;;16.65;82.75;98977.81;5058861;28;20064;-73
2023/09/30 04:38:37;;;;;;;5.97;3.85;;;;;;;16.72;82.94;99004.78;5059755;28;20024;-72
2023/09/30 04:41:03;;;;;;;10.30;4.63;;;;;;;16.68;82.80;98998.25;5057767;28;20078;-73
2023/09/30 04:43:29;;;;;;;6.60;4.18;;;;;;;16.72;82.79;98983.84;5056900;28;20396;-74
2023/09/30 04:45:56;;;;;;;10.70;4.20;;;;;;;16.79;82.80;99010.81;5052611;28;20068;-74
2023/09/30 04:48:23;;;;;;;10.50;5.05;;;;;;;16.70;82.35;98993.34;5049586;28;20028;-72
2023/09/30 04:50:48;;;;;;;9.65;4.88;;;;;;;16.78;82.63;99009.19;5042582;28;20056;-71
2023/09/30 04:53:13;;;;;;;9.25;4.93;;;;;;;16.56;83.15;98973.97;5058765;28;20055;-73
2023/09/30 04:55:39;;;;;;;7.53;4.75;;;;;;;16.85;83.17;99009.75;5055915;28;20496;-72
2023/09/30 04:58:05;;;;;;;13.77;5.15;;;;;;;16.71;84.02;98986.84;5057854;28;20032;-72
2023/09/30 05:00:30;;;;;;;8.93;4.80;;;;;;;16.85;83.71;99015.22;5057711;28;20051;-73
2023/09/30 05:02:56;;;;;;;12.30;5.07;;;;;;;16.78;83.72;99006.47;5039897;28;20020;-73
2023/09/30 05:05:21;;;;;;;7.65;4.57;;;;;;;16.89;83.83;99029.91;5056643;28;20094;-72
2023/09/30 05:07:47;;;;;;;8.05;4.40;;;;;;;16.83;83.78;99023.63;5058745;28;20046;-74
2023/09/30 05:10:15;;;;;;;7.93;4.75;;;;;;;16.82;83.67;99015.72;5042290;28;20115;-75
2023/09/30 05:12:45;;;;;;;8.48;4.63;;;;;;;16.82;83.81;99016.56;5051979;28;20028;-74
2023/09/30 05:15:15;;;;;;;9.13;4.95;;;;;;;16.80;83.88;99017.91;5024557;28;20144;-72
2023/09/30 05:17:43;;;;;;;9.38;4.30;;;;;;;16.80;84.15;99028.78;5048501;28;20058;-74
2023/09/30 05:20:10;;;;;;;7.63;3.95;;;;;;;16.74;83.76;99030.66;5058415;28;20030;-73
2023/09/30 05:22:36;;;;;;;7.35;3.97;;;;;;;16.73;83.88;99030.91;5038526;28;20098;-73
2023/09/30 05:25:01;;;;;;;6.10;3.90;;;;;;;16.70;83.53;99034.97;5035210;28;20021;-75
2023/09/30 05:27:27;;;;;;;6.47;3.75;;;;;;;16.62;83.43;99031.94;5028298;28;20033;-73
2023/09/30 05:29:52;;;;;;;6.70;3.40;;;;;;;16.51;83.48;99034.59;5055460;28;20119;-74
2023/09/30 05:32:18;;;;;;;6.38;3.35;;;;;;;16.50;82.91;99032.09;5063083;28;20037;-75
2023/09/30 05:34:43;;;;;;;8.15;3.50;;;;;;;16.45;82.98;99051.91;5056306;28;20036;-75
2023/09/30 05:37:09;;;;;;;8.38;4.38;;;;;;;16.52;82.85;99066.13;5055263;28;20120;-74
2023/09/30 05:39:35;;;;;;;7.50;3.50;;;;;;;16.45;82.72;99053.84;5074204;28;20078;-74
2023/09/30 05:42:00;;;;;;;7.88;3.70;;;;;;;16.52;82.60;99071.56;5057148;28;20090;-75
2023/09/30 05:44:27;;;;;;;6.32;3.60;;;;;;;16.51;82.28;99069.13;5055152;28;20669;-75
2023/09/30 05:46:53;;;;;;;7.70;3.75;;;;;;;16.43;81.98;99045.91;5072579;28;20040;-73
2023/09/30 05:49:19;;;;;;;4.72;3.55;;;;;;;16.37;81.62;99046.16;5055029;28;20030;-75
2023/09/30 05:51:44;;;;;;;6.57;3.92;;;;;;;16.48;81.50;99070.44;5038359;28;20063;-75
2023/09/30 05:54:10;;;;;;;5.78;3.88;;;;;;;16.49;81.49;99077.53;5072813;28;20503;-74
2023/09/30 05:56:37;;;;;;;7.60;3.60;;;;;;;16.40;80.92;99075.53;5054778;28;20063;-75
2023/09/30 05:59:04;;;;;;;7.15;3.83;;;;;;;16.38;81.02;99064.91;5073149;28;20488;-73
2023/09/30 06:01:31;;;;;;;9.10;3.30;;;;;;;16.32;79.86;99082.28;5054620;28;20066;-74
2023/09/30 06:03:57;;;;;;;7.28;3.40;;;;;;;16.09;79.70;99082.63;5054528;28;20029;-73
2023/09/30 06:06:23;;;;;;;7.88;3.63;;;;;;;16.02;80.12;99083.91;5041661;28;20052;-75
2023/09/30 06:08:49;;;;;;;6.45;3.70;;;;;;;16.07;79.47;99094.81;5042299;28;20016;-73
2023/09/30 06:11:19;;;;;;;8.70;3.80;;;;;;;16.14;79.12;99107.13;5043893;28;20037;-73
2023/09/30 06:13:47;;;;;;;7.63;3.63;;;;;;;16.06;79.15;99109.47;5034413;28;20075;-74
2023/09/30 06:16:13;;;;;;;6.07;3.55;;;;;;;15.94;79.25;99090.59;5065267;28;20094;-75
2023/09/30 06:18:38;;;;;;;7.38;4.10;;;;;;;15.90;79.01;99101.19;5037693;28;20036;-74
2023/09/30 06:21:04;;;;;;;7.63;3.95;;;;;;;15.90;78.75;99084.06;5072273;28;20401;-74
2023/09/30 06:23:30;;;;;;;8.13;3.80;;;;;;;16.04;78.48;99112.44;5071913;28;20031;-74
2023/09/30 06:25:56;;;;;;;7.32;3.70;;;;;;;16.07;78.57;99106.50;5071430;28;20491;-75
2023/09/30 06:28:26;;;;;;;7.28;3.40;;;;;;;15.93;78.52;99101.75;5072116;28;20023;-73
2023/09/30 06:30:52;;;;;;;9.27;3.65;;;;;;;16.00;78.02;99111.34;5054792;28;20036;-74
2023/09/30 06:33:17;;;;;;;8.35;3.22;;;;;;;15.84;78.35;99094.06;5065354;28;20101;-75
2023/09/30 06:35:50;;;;;;;9.40;3.85;;;;;;;16.05;78.61;99126.88;5065708;28;20609;-74
2023/09/30 06:38:19;;;;;;;8.30;3.20;;;;;;;15.99;78.39;99109.69;5055187;28;20174;-74
2023/09/30 06:40:46;;;;;;;8.82;3.63;;;;;;;15.94;78.40;99101.47;5037539;28;20438;-74
2023/09/30 06:43:11;;;;;;;8.00;3.65;;;;;;;15.77;78.49;99101.59;5055038;28;20044;-71
2023/09/30 06:45:41;;;;;;;8.18;3.40;;;;;;;15.81;78.82;99107.34;5054114;28;20103;-74
2023/09/30 06:48:12;;;;;;;5.32;3.95;;;;;;;15.80;79.01;99113.81;5049647;28;20035;-74
2023/09/30 06:50:39;;;;;;;5.90;3.05;;;;;;;15.91;79.30;99118.31;5047981;28;20067;-74
2023/09/30 06:53:06;;;;;;;8.85;3.50;;;;;;;15.97;78.84;99111.84;5044102;28;20096;-74
2023/09/30 06:55:31;;;;;;;8.73;3.90;;;;;;;16.02;78.81;99120.06;5053449;28;20047;-74
2023/09/30 06:57:57;;;;;;;9.48;3.67;;;;;;;15.92;78.16;99113.72;5071417;28;20024;-74
2023/09/30 07:00:22;;;;;;;6.75;3.70;;;;;;;15.91;77.53;99140.03;5050349;28;20033;-74
2023/09/30 07:02:48;;;;;;;7.97;4.00;;;;;;;15.88;78.42;99145.97;5044183;28;20035;-73
2023/09/30 07:05:14;;;;;;;8.48;3.78;;;;;;;15.86;78.44;99148.13;5071240;28;20086;-72
2023/09/30 07:07:41;;;;;;;10.10;3.30;;;;;;;15.83;78.31;99154.06;5034071;28;20373;-72
2023/09/30 07:10:07;;;;;;;6.63;3.83;;;;;;;15.83;78.11;99154.06;5064125;28;20047;-72
2023/09/30 07:12:35;;;;;;;6.45;3.65;;;;;;;15.73;78.20;99156.66;5045042;28;20021;-73
2023/09/30 07:15:01;;;;;;;8.68;3.85;;;;;;;15.77;77.98;99168.69;5067940;28;20037;-73
2023/09/30 07:17:27;;;;;;;6.70;3.70;;;;;;;15.69;78.10;99147.38;5070117;28;20062;-71
2023/09/30 07:19:52;;;;;;;9.20;3.83;;;;;;;15.87;77.96;99160.63;5053198;28;20044;-73
2023/09/30 07:22:18;;;;;;;8.70;3.42;;;;;;;15.94;77.54;99146.88;5071283;28;20028;-72
2023/09/30 07:24:43;;;;;;;6.88;3.67;;;;;;;16.06;77.49;99153.78;5052985;28;20478;-72
2023/09/30 07:27:08;;;;;;;12.70;4.32;;;;;;;15.97;77.84;99154.50;5033156;28;20021;-73
2023/09/30 07:29:34;;;;;;;8.35;4.15;;;;;;;15.96;77.79;99153.69;5049718;28;20039;-71
2023/09/30 07:31:59;;;;;;;9.50;4.03;;;;;;;15.98;77.02;99176.00;5070083;28;20028;-73
2023/09/30 07:34:25;;;;;;;8.98;3.90;;;;;;;15.81;77.60;99148.06;5033509;28;20503;-73
2023/09/30 07:36:50;;;;;;;10.15;4.47;;;;;;;15.99;77.53;99166.75;5045241;28;20043;-72
2023/09/30 07:39:17;;;;;;;9.75;4.03;;;;;;;16.11;77.05;99177.47;5075325;28;20473;-72
2023/09/30 07:41:42;;;;;;;10.13;4.13;;;;;;;16.07;76.75;99165.47;5075275;28;20028;-72
2023/09/30 07:44:09;;;;;;;7.43;3.78;;;;;;;16.14;76.77;99175.06;5075266;28;20081;-71
2023/09/30 07:46:35;;;;;;;10.85;4.25;;;;;;;16.15;76.31;99167.75;5074739;28;20185;-72
2023/09/30 07:49:00;;;;;;;7.38;4.07;;;;;;;16.22;76.56;99168.34;5075155;28;20123;-72
2023/09/30 07:51:26;;;;;;;6.40;3.70;;;;;;;16.38;76.59;99172.88;5057375;28;20480;-73
2023/09/30 07:53:52;;;;;;;8.32;3.83;;;;;;;16.35;76.26;99163.31;5074926;28;20040;-72
2023/09/30 07:56:17;;;;;;;8.48;3.75;;;;;;;16.45;75.80;99157.94;5072838;28;20117;-72
2023/09/30 07:58:43;;;;;;;8.63;3.20;;;;;;;16.57;75.76;99174.97;5052563;28;20387;-72
2023/09/30 08:01:08;;;;;;;7.18;3.60;;;;;;;16.58;75.67;99163.00;5057028;28;20146;-72
2023/09/30 08:03:34;;;;;;;5.50;3.55;;;;;;;16.71;75.30;99171.81;5039386;28;20378;-72
2023/09/30 08:06:00;;;;;;;8.93;3.88;;;;;;;16.79;74.54;99177.59;5053015;28;20025;-71
2023/09/30 08:08:25;;;;;;;8.18;3.67;;;;;;;16.80;74.86;99175.69;5070952;28;20543;-73
2023/09/30 08:10:55;;;;;;;6.72;4.13;;;;;;;16.87;74.93;99182.56;5056388;28;20557;-73
2023/09/30 08:13:22;;;;;;;8.07;3.95;;;;;;;16.87;75.18;99173.56;5056579;28;20476;-72
2023/09/30 08:15:48;;;;;;;8.35;3.65;;;;;;;16.86;74.56;99175.47;5069935;28;20516;-76
2023/09/30 08:18:13;;;;;;;8.35;4.00;;;;;;;16.91;74.38;99177.41;5036590;28;20037;-72
2023/09/30 08:20:38;;;;;;;7.25;3.92;;;;;;;16.81;73.83;99161.00;5064678;28;20618;-73
2023/09/30 08:23:04;;;;;;;7.80;3.70;;;;;;;16.98;74.48;99183.44;5053336;28;20040;-73
2023/09/30 08:25:29;;;;;;;8.07;4.30;;;;;;;17.00;73.70;99194.88;5064496;28;20025;-72
2023/09/30 08:27:55;;;;;;;7.78;4.05;;;;;;;17.04;73.05;99199.53;5074425;28;20033;-73
2023/09/30 08:30:20;;;;;;;7.30;3.85;;;;;;;16.98;72.73;99161.66;5053149;28;20028;-73
2023/09/30 08:32:46;;;;;;;9.63;3.70;;;;;;;17.26;72.55;99180.38;5071046;28;20132;-73
2023/09/30 08:35:14;;;;;;;7.70;3.67;;;;;;;17.45;72.44;99189.72;5051487;28;20033;-72
2023/09/30 08:37:39;;;;;;;9.23;3.75;;;;;;;17.49;71.91;99190.00;5072587;28;20066;-73
2023/09/30 08:40:05;;;;;;;6.90;3.70;;;;;;;17.41;71.77;99185.88;5039698;28;20497;-73
2023/09/30 08:42:32;;;;;;;7.00;3.72;;;;;;;17.37;72.24;99175.78;5074339;28;20040;-72
2023/09/30 08:44:58;;;;;;;6.75;3.58;;;;;;;17.47;71.81;99187.56;5055970;28;20033;-72
2023/09/30 08:47:27;;;;;;;6.72;3.60;;;;;;;17.64;71.52;99195.59;5055591;28;20036;-73
2023/09/30 08:49:56;;;;;;;7.30;3.53;;;;;;;17.72;71.65;99190.44;5052921;28;20392;-74
2023/09/30 08:52:22;;;;;;;7.30;3.78;;;;;;;17.80;71.00;99172.75;5055052;28;20480;-72
2023/09/30 08:54:47;;;;;;;5.93;3.60;;;;;;;18.07;70.74;99187.00;5052688;28;20027;-72
2023/09/30 08:57:13;;;;;;;6.88;3.63;;;;;;;18.33;70.50;99190.59;5053559;28;20045;-73
2023/09/30 08:59:41;;;;;;;9.82;4.30;;;;;;;18.49;69.22;99184.13;5056045;28;20098;-73
2023/09/30 09:02:09;;;;;;;7.35;3.70;;;;;;;18.52;68.64;99178.13;5072517;28;20051;-72
2023/09/30 09:04:36;;;;;;;6.85;3.30;;;;;;;18.49;68.64;99157.66;5035871;28;20472;-73
2023/09/30 09:07:01;;;;;;;7.18;3.42;;;;;;;18.48;69.07;99155.22;5050959;28;20083;-72
2023/09/30 09:09:27;;;;;;;7.38;3.78;;;;;;;18.40;68.74;99169.34;5064951;28;20103;-74
2023/09/30 09:11:52;;;;;;;10.00;3.63;;;;;;;18.29;69.55;99171.25;5055727;28;20480;-72
2023/09/30 09:14:18;;;;;;;7.97;3.78;;;;;;;17.95;68.79;99146.34;5073542;28;20095;-74
2023/09/30 09:16:57;;;;;;;7.57;3.20;;;;;;;18.08;69.26;99176.94;5054933;28;20033;-74
2023/09/30 09:19:22;;;;;;;6.15;3.80;;;;;;;18.22;69.53;99194.41;5055588;28;20051;-75
2023/09/30 09:21:58;;;;;;;6.40;3.20;;;;;;;18.21;68.96;99181.84;5055114;28;20473;-74
2023/09/30 09:24:31;;;;;;;9.50;3.45;;;;;;;18.21;68.22;99173.66;5038527;28;20480;-74
2023/09/30 09:27:11;;;;;;;5.43;3.15;;;;;;;18.33;67.50;99190.59;5055002;28;20028;-75
2023/09/30 09:29:37;;;;;;;5.28;3.10;;;;;;;18.29;66.90;99189.53;5055194;28;20033;-74
2023/09/30 09:32:16;;;;;;;7.22;3.20;;;;;;;18.47;66.61;99199.94;5072990;28;20037;-74
2023/09/30 09:34:43;;;;;;;6.45;3.20;;;;;;;18.62;66.52;99205.44;5051818;28;20040;-73
2023/09/30 09:37:22;;;;;;;7.15;3.40;;;;;;;18.30;66.57;99180.22;5030468;28;20028;-75
2023/09/30 09:39:56;;;;;;;7.88;3.30;;;;;;;18.58;66.65;99209.75;5055273;28;20111;-74
2023/09/30 09:42:32;;;;;;;9.27;3.60;;;;;;;18.63;66.26;99196.97;5038635;28;20032;-74
2023/09/30 09:45:03;;;;;;;5.95;2.78;;;;;;;18.76;65.19;99194.78;5054664;28;20036;-74
2023/09/30 09:47:29;;;;;;;6.13;3.03;;;;;;;18.77;65.62;99197.22;5054738;28;20404;-75
2023/09/30 09:49:56;;;;;;;9.20;3.42;;;;;;;18.71;64.66;99183.88;5054648;28;20024;-75
2023/09/30 09:52:23;;;;;;;9.30;3.15;;;;;;;18.74;63.22;99216.88;5038141;28;20538;-75
2023/09/30 09:54:50;;;;;;;5.55;3.10;;;;;;;18.65;63.31;99199.41;5054179;28;20493;-74
2023/09/30 09:57:16;;;;;;;6.90;3.33;;;;;;;18.74;64.18;99203.22;5053617;28;20032;-75
2023/09/30 09:59:45;;;;;;;6.43;3.00;;;;;;;18.77;64.44;99202.69;5064226;28;20021;-74
2023/09/30 10:02:19;;;;;;;7.20;2.97;;;;;;;18.68;64.33;99204.31;5051225;28;20033;-74
2023/09/30 10:04:46;;;;;;;5.90;2.70;;;;;;;18.44;63.59;99205.91;5042075;28;20033;-74
2023/09/30 10:07:20;;;;;;;7.15;2.80;;;;;;;18.33;63.08;99202.34;5050717;28;20024;-74
2023/09/30 10:09:50;;;;;;;5.88;2.70;;;;;;;18.41;62.41;99209.19;5032196;28;20103;-73
2023/09/30 10:12:16;;;;;;;4.55;2.60;;;;;;;18.46;62.03;99218.22;5067277;28;20029;-74
2023/09/30 10:14:41;;;;;;;4.18;2.22;;;;;;;18.59;60.89;99206.78;5052605;28;20450;-74
2023/09/30 10:17:06;;;;;;;6.20;2.95;;;;;;;18.58;60.50;99220.69;5053987;28;20115;-74
2023/09/30 10:19:32;;;;;;;4.60;2.55;;;;;;;18.77;59.54;99223.69;5043689;28;21246;-73
2023/09/30 10:22:16;;;;;;;4.70;2.40;;;;;;;18.84;59.32;99214.16;5037153;28;20034;-74
2023/09/30 10:24:42;;;;;;;6.47;2.70;;;;;;;18.82;59.25;99205.41;5069024;28;20039;-74
2023/09/30 10:27:31;;;;;;;6.80;3.10;;;;;;;18.87;59.46;99218.25;5045401;28;20629;-75
2023/09/30 10:30:23;;;;;;;7.15;2.85;;;;;;;19.07;58.97;99219.06;5071939;28;20063;-73
2023/09/30 10:32:51;;;;;;;8.43;3.42;;;;;;;19.26;58.55;99211.94;5068421;28;20646;-75
2023/09/30 10:35:17;;;;;;;8.93;3.17;;;;;;;19.27;58.81;99212.75;5062428;28;20032;-73
2023/09/30 10:37:43;;;;;;;6.63;2.63;;;;;;;19.17;58.80;99205.41;5071759;28;20484;-74
2023/09/30 10:40:10;;;;;;;4.35;2.85;;;;;;;18.95;59.71;99182.22;5053930;28;20115;-75
2023/09/30 10:42:55;;;;;;;5.10;2.72;;;;;;;19.32;60.11;99194.44;5053919;28;20036;-75
2023/09/30 10:45:36;;;;;;;5.10;2.88;;;;;;;19.59;58.10;99199.59;5054081;28;20040;-74
2023/09/30 10:48:32;;;;;;;5.28;2.38;;;;;;;19.62;57.57;99192.75;5071805;28;20044;-75
2023/09/30 10:51:01;;;;;;;4.80;2.47;;;;;;;19.66;58.40;99188.38;5071651;28;20040;-75
2023/09/30 10:53:30;;;;;;;6.15;2.90;;;;;;;19.40;57.88;99156.75;5053692;28;20157;-75
2023/09/30 10:55:59;;;;;;;6.80;3.03;;;;;;;19.66;57.48;99182.91;5053389;28;20032;-74
2023/09/30 10:58:40;;;;;;;4.60;2.63;;;;;;;19.82;57.02;99181.72;5053630;28;20408;-75
2023/09/30 11:01:05;;;;;;;4.78;2.28;;;;;;;19.91;56.51;99174.59;5053758;28;20108;-75
2023/09/30 11:03:31;;;;;;;7.22;3.15;;;;;;;20.03;55.75;99183.28;5037118;28;20138;-74
2023/09/30 11:05:56;;;;;;;6.57;3.00;;;;;;;19.77;55.90;99151.69;5053344;28;20408;-74
2023/09/30 11:08:23;;;;;;;4.70;2.50;;;;;;;19.78;55.97;99169.72;5053672;28;20048;-75
2023/09/30 11:10:52;;;;;;;4.65;2.53;;;;;;;19.87;55.06;99157.09;5049953;28;20119;-75
2023/09/30 11:13:18;;;;;;;8.82;3.28;;;;;;;19.96;55.26;99160.88;5036401;28;20095;-75
2023/09/30 11:15:44;;;;;;;6.30;2.97;;;;;;;20.14;55.24;99168.44;5033041;28;20060;-75
2023/09/30 11:18:14;;;;;;;5.78;3.17;;;;;;;20.25;55.21;99170.06;5049991;28;20035;-75
2023/09/30 11:20:40;;;;;;;4.30;2.65;;;;;;;20.32;54.88;99156.06;5050151;28;20041;-74
2023/09/30 11:23:06;;;;;;;6.07;2.90;;;;;;;20.26;53.06;99155.25;5050497;28;20048;-75
2023/09/30 11:25:35;;;;;;;5.25;2.80;;;;;;;20.36;53.38;99157.13;5050198;28;20065;-74
2023/09/30 11:28:19;;;;;;;6.25;2.83;;;;;;;20.36;52.42;99149.72;5043146;28;20013;-75